sensor_id;sensor_type;location;lat;lon;timestamp;pressure;altitude;pressure_sealevel;temperature;humidity
52591;BME280;38483;42.620;25.394;2023-04-25T00:00:49;96346.75;;;14.34;84.94
52591;BME280;38483;42.620;25.394;2023-04-25T00:03:18;96333.53;;;14.37;83.12
52591;BME280;38483;42.620;25.394;2023-04-25T00:05:46;96335.63;;;14.32;83.54
52591;BME280;38483;42.620;25.394;2023-04-25T00:08:13;96338.53;;;14.28;83.03
52591;BME280;38483;42.620;25.394;2023-04-25T00:10:39;96340.53;;;14.24;83.39
52591;BME280;38483;42.620;25.394;2023-04-25T00:13:06;96328.09;;;14.04;84.02
52591;BME280;38483;42.620;25.394;2023-04-25T00:15:34;96322.72;;;13.82;84.36
52591;BME280;38483;42.620;25.394;2023-04-25T00:18:02;96314.66;;;13.61;86.32
52591;BME280;38483;42.620;25.394;2023-04-25T00:20:29;96305.91;;;13.50;86.13
52591;BME280;38483;42.620;25.394;2023-04-25T00:22:56;96298.13;;;13.37;86.97
52591;BME280;38483;42.620;25.394;2023-04-25T00:25:23;96300.31;;;13.31;88.39
52591;BME280;38483;42.620;25.394;2023-04-25T00:27:49;96290.06;;;13.02;89.55
52591;BME280;38483;42.620;25.394;2023-04-25T00:30:16;96283.75;;;12.94;90.12
52591;BME280;38483;42.620;25.394;2023-04-25T00:32:43;96287.97;;;12.82;91.13
52591;BME280;38483;42.620;25.394;2023-04-25T00:35:10;96282.47;;;12.74;91.47
52591;BME280;38483;42.620;25.394;2023-04-25T00:37:37;96269.19;;;12.79;90.68
52591;BME280;38483;42.620;25.394;2023-04-25T00:40:07;96255.16;;;12.81;90.08
52591;BME280;38483;42.620;25.394;2023-04-25T00:42:34;96250.06;;;12.67;89.80
52591;BME280;38483;42.620;25.394;2023-04-25T00:45:02;96246.09;;;12.74;89.81
52591;BME280;38483;42.620;25.394;2023-04-25T00:47:30;96241.00;;;12.73;89.64
52591;BME280;38483;42.620;25.394;2023-04-25T00:49:58;96237.38;;;12.88;88.59
52591;BME280;38483;42.620;25.394;2023-04-25T00:52:25;96236.00;;;12.82;87.28
52591;BME280;38483;42.620;25.394;2023-04-25T00:54:51;96238.63;;;12.82;87.10
52591;BME280;38483;42.620;25.394;2023-04-25T00:57:18;96240.06;;;12.86;87.68
52591;BME280;38483;42.620;25.394;2023-04-25T00:59:45;96234.88;;;12.99;87.76
52591;BME280;38483;42.620;25.394;2023-04-25T01:02:13;96235.94;;;13.09;89.23
52591;BME280;38483;42.620;25.394;2023-04-25T01:04:40;96228.00;;;13.36;88.39
52591;BME280;38483;42.620;25.394;2023-04-25T01:07:07;96216.09;;;13.57;87.89
52591;BME280;38483;42.620;25.394;2023-04-25T01:09:34;96223.75;;;13.71;87.08
52591;BME280;38483;42.620;25.394;2023-04-25T01:12:01;96213.03;;;13.75;86.65
52591;BME280;38483;42.620;25.394;2023-04-25T01:14:29;96221.72;;;13.87;86.66
52591;BME280;38483;42.620;25.394;2023-04-25T01:16:56;96219.19;;;13.98;86.32
52591;BME280;38483;42.620;25.394;2023-04-25T01:19:23;96223.94;;;14.04;86.21
52591;BME280;38483;42.620;25.394;2023-04-25T01:21:50;96217.41;;;13.99;86.30
52591;BME280;38483;42.620;25.394;2023-04-25T01:24:18;96214.25;;;14.06;85.27
52591;BME280;38483;42.620;25.394;2023-04-25T01:26:45;96215.66;;;13.99;85.51
52591;BME280;38483;42.620;25.394;2023-04-25T01:29:20;96207.22;;;13.96;86.37
52591;BME280;38483;42.620;25.394;2023-04-25T01:31:47;96211.50;;;13.97;86.29
52591;BME280;38483;42.620;25.394;2023-04-25T01:34:14;96207.53;;;13.91;86.83
52591;BME280;38483;42.620;25.394;2023-04-25T01:36:41;96198.13;;;13.77;86.90
52591;BME280;38483;42.620;25.394;2023-04-25T01:39:08;96189.03;;;13.83;86.54
52591;BME280;38483;42.620;25.394;2023-04-25T01:41:35;96189.88;;;13.83;86.07
52591;BME280;38483;42.620;25.394;2023-04-25T01:44:03;96194.97;;;13.85;86.47
52591;BME280;38483;42.620;25.394;2023-04-25T01:46:30;96188.59;;;13.89;86.06
52591;BME280;38483;42.620;25.394;2023-04-25T01:48:57;96202.97;;;13.95;85.81
52591;BME280;38483;42.620;25.394;2023-04-25T01:51:24;96191.72;;;13.94;85.80
52591;BME280;38483;42.620;25.394;2023-04-25T01:53:51;96192.66;;;13.93;86.07
52591;BME280;38483;42.620;25.394;2023-04-25T01:56:18;96192.50;;;14.07;86.45
52591;BME280;38483;42.620;25.394;2023-04-25T01:58:45;96189.38;;;14.02;85.78
52591;BME280;38483;42.620;25.394;2023-04-25T02:01:15;96184.63;;;13.96;85.37
52591;BME280;38483;42.620;25.394;2023-04-25T02:03:49;96190.28;;;13.90;85.72
52591;BME280;38483;42.620;25.394;2023-04-25T02:06:24;96180.75;;;13.78;85.19
52591;BME280;38483;42.620;25.394;2023-04-25T02:08:53;96193.06;;;13.76;85.20
52591;BME280;38483;42.620;25.394;2023-04-25T02:11:20;96190.50;;;13.87;85.09
52591;BME280;38483;42.620;25.394;2023-04-25T02:13:57;96182.88;;;13.97;85.12
52591;BME280;38483;42.620;25.394;2023-04-25T02:16:44;96183.13;;;13.81;85.31
52591;BME280;38483;42.620;25.394;2023-04-25T02:19:11;96186.72;;;13.91;85.19
52591;BME280;38483;42.620;25.394;2023-04-25T02:21:38;96183.91;;;13.94;84.67
52591;BME280;38483;42.620;25.394;2023-04-25T02:24:04;96194.66;;;13.89;85.03
52591;BME280;38483;42.620;25.394;2023-04-25T02:26:33;96194.25;;;13.83;85.68
52591;BME280;38483;42.620;25.394;2023-04-25T02:28:59;96205.91;;;13.90;85.52
52591;BME280;38483;42.620;25.394;2023-04-25T02:31:27;96204.72;;;13.70;85.56
52591;BME280;38483;42.620;25.394;2023-04-25T02:33:56;96208.88;;;13.73;85.68
52591;BME280;38483;42.620;25.394;2023-04-25T02:36:23;96203.94;;;13.57;86.02
52591;BME280;38483;42.620;25.394;2023-04-25T02:38:50;96208.97;;;13.71;86.18
52591;BME280;38483;42.620;25.394;2023-04-25T02:41:20;96201.81;;;13.62;86.14
52591;BME280;38483;42.620;25.394;2023-04-25T02:43:47;96201.13;;;13.48;85.77
52591;BME280;38483;42.620;25.394;2023-04-25T02:46:17;96204.53;;;12.87;88.34
52591;BME280;38483;42.620;25.394;2023-04-25T02:48:59;96206.06;;;12.52;91.02
52591;BME280;38483;42.620;25.394;2023-04-25T02:51:25;96201.09;;;12.49;92.43
52591;BME280;38483;42.620;25.394;2023-04-25T02:53:52;96197.97;;;12.56;90.86
52591;BME280;38483;42.620;25.394;2023-04-25T02:56:19;96201.72;;;12.65;90.54
52591;BME280;38483;42.620;25.394;2023-04-25T02:58:46;96197.75;;;12.72;90.49
52591;BME280;38483;42.620;25.394;2023-04-25T03:01:13;96198.91;;;12.80;90.30
52591;BME280;38483;42.620;25.394;2023-04-25T03:03:40;96204.66;;;13.11;89.79
52591;BME280;38483;42.620;25.394;2023-04-25T03:06:07;96208.00;;;13.13;88.69
52591;BME280;38483;42.620;25.394;2023-04-25T03:08:33;96206.63;;;13.20;88.63
52591;BME280;38483;42.620;25.394;2023-04-25T03:11:01;96215.03;;;13.23;88.56
52591;BME280;38483;42.620;25.394;2023-04-25T03:13:28;96212.09;;;13.28;88.03
52591;BME280;38483;42.620;25.394;2023-04-25T03:15:57;96215.00;;;13.36;88.15
52591;BME280;38483;42.620;25.394;2023-04-25T03:18:24;96218.84;;;13.43;88.20
52591;BME280;38483;42.620;25.394;2023-04-25T03:20:53;96220.78;;;13.52;87.79
52591;BME280;38483;42.620;25.394;2023-04-25T03:23:20;96211.63;;;13.59;87.56
52591;BME280;38483;42.620;25.394;2023-04-25T03:25:47;96207.88;;;13.63;87.03
52591;BME280;38483;42.620;25.394;2023-04-25T03:28:14;96215.22;;;13.69;87.32
52591;BME280;38483;42.620;25.394;2023-04-25T03:30:41;96218.13;;;13.77;87.27
52591;BME280;38483;42.620;25.394;2023-04-25T03:33:09;96217.91;;;13.80;86.20
52591;BME280;38483;42.620;25.394;2023-04-25T03:35:36;96209.75;;;13.61;85.61
52591;BME280;38483;42.620;25.394;2023-04-25T03:38:02;96209.81;;;13.36;87.48
52591;BME280;38483;42.620;25.394;2023-04-25T03:40:34;96196.00;;;12.97;88.99
52591;BME280;38483;42.620;25.394;2023-04-25T03:43:14;96196.84;;;12.73;90.91
52591;BME280;38483;42.620;25.394;2023-04-25T03:45:47;96199.34;;;12.87;90.53
52591;BME280;38483;42.620;25.394;2023-04-25T03:48:18;96204.53;;;12.99;89.75
52591;BME280;38483;42.620;25.394;2023-04-25T03:50:48;96206.50;;;13.21;89.33
52591;BME280;38483;42.620;25.394;2023-04-25T03:53:15;96211.19;;;13.29;88.81
52591;BME280;38483;42.620;25.394;2023-04-25T03:56:20;96201.81;;;13.39;88.53
52591;BME280;38483;42.620;25.394;2023-04-25T03:58:53;96202.09;;;13.47;88.56
52591;BME280;38483;42.620;25.394;2023-04-25T04:01:24;96196.44;;;13.53;87.72
52591;BME280;38483;42.620;25.394;2023-04-25T04:03:51;96197.91;;;13.57;87.52
52591;BME280;38483;42.620;25.394;2023-04-25T04:06:20;96195.91;;;13.60;87.11
52591;BME280;38483;42.620;25.394;2023-04-25T04:08:53;96198.53;;;13.48;87.81
52591;BME280;38483;42.620;25.394;2023-04-25T04:11:20;96207.06;;;13.50;87.61
52591;BME280;38483;42.620;25.394;2023-04-25T04:13:47;96201.44;;;13.56;87.79
52591;BME280;38483;42.620;25.394;2023-04-25T04:16:14;96207.56;;;13.55;87.57
52591;BME280;38483;42.620;25.394;2023-04-25T04:18:41;96209.88;;;13.59;87.34
52591;BME280;38483;42.620;25.394;2023-04-25T04:21:08;96211.63;;;13.59;87.37
52591;BME280;38483;42.620;25.394;2023-04-25T04:23:38;96211.63;;;13.59;87.54
52591;BME280;38483;42.620;25.394;2023-04-25T04:26:06;96206.22;;;13.62;86.90
52591;BME280;38483;42.620;25.394;2023-04-25T04:29:04;96206.09;;;13.63;86.59
52591;BME280;38483;42.620;25.394;2023-04-25T04:31:57;96209.75;;;13.61;85.98
52591;BME280;38483;42.620;25.394;2023-04-25T04:34:24;96211.31;;;13.63;86.39
52591;BME280;38483;42.620;25.394;2023-04-25T04:36:52;96212.00;;;13.78;86.15
52591;BME280;38483;42.620;25.394;2023-04-25T04:39:19;96204.72;;;13.70;85.50
52591;BME280;38483;42.620;25.394;2023-04-25T04:42:00;96206.19;;;13.74;85.82
52591;BME280;38483;42.620;25.394;2023-04-25T04:44:57;96192.22;;;13.75;85.22
52591;BME280;38483;42.620;25.394;2023-04-25T04:47:41;96195.09;;;13.83;84.57
52591;BME280;38483;42.620;25.394;2023-04-25T04:50:43;96195.25;;;13.93;83.94
52591;BME280;38483;42.620;25.394;2023-04-25T04:53:22;96203.69;;;13.60;86.10
52591;BME280;38483;42.620;25.394;2023-04-25T04:56:07;96201.66;;;13.53;87.09
52591;BME280;38483;42.620;25.394;2023-04-25T04:58:46;96200.53;;;13.44;87.91
52591;BME280;38483;42.620;25.394;2023-04-25T05:01:37;96197.16;;;13.19;90.04
52591;BME280;38483;42.620;25.394;2023-04-25T05:04:24;96194.13;;;13.37;88.93
52591;BME280;38483;42.620;25.394;2023-04-25T05:07:02;96192.06;;;13.17;91.22
52591;BME280;38483;42.620;25.394;2023-04-25T05:09:41;96198.09;;;13.18;91.28
52591;BME280;38483;42.620;25.394;2023-04-25T05:12:31;96198.00;;;13.55;90.21
52591;BME280;38483;42.620;25.394;2023-04-25T05:15:18;96188.75;;;13.51;89.67
52591;BME280;38483;42.620;25.394;2023-04-25T05:18:11;96197.91;;;13.57;88.97
52591;BME280;38483;42.620;25.394;2023-04-25T05:20:51;96196.41;;;13.65;88.61
52591;BME280;38483;42.620;25.394;2023-04-25T05:23:38;96193.88;;;13.76;88.42
52591;BME280;38483;42.620;25.394;2023-04-25T05:26:31;96194.53;;;13.91;86.77
52591;BME280;38483;42.620;25.394;2023-04-25T05:29:16;96200.19;;;13.85;87.14
52591;BME280;38483;42.620;25.394;2023-04-25T05:32:12;96194.53;;;14.15;85.81
52591;BME280;38483;42.620;25.394;2023-04-25T05:34:39;96181.25;;;14.07;85.33
52591;BME280;38483;42.620;25.394;2023-04-25T05:37:18;96186.22;;;14.10;85.18
52591;BME280;38483;42.620;25.394;2023-04-25T05:39:59;96188.41;;;13.92;85.72
52591;BME280;38483;42.620;25.394;2023-04-25T05:42:45;96185.50;;;14.31;84.65
52591;BME280;38483;42.620;25.394;2023-04-25T05:45:27;96187.00;;;14.57;83.36
52591;BME280;38483;42.620;25.394;2023-04-25T05:48:03;96115.91;;;14.33;82.94
52591;BME280;38483;42.620;25.394;2023-04-25T05:51:08;96190.72;;;14.88;81.84
52591;BME280;38483;42.620;25.394;2023-04-25T05:54:05;96187.75;;;14.93;82.49
52591;BME280;38483;42.620;25.394;2023-04-25T05:56:33;96182.81;;;15.12;81.68
52591;BME280;38483;42.620;25.394;2023-04-25T05:59:00;96185.88;;;15.28;80.86
52591;BME280;38483;42.620;25.394;2023-04-25T06:01:28;96180.31;;;15.43;80.28
52591;BME280;38483;42.620;25.394;2023-04-25T06:03:56;96178.28;;;15.58;79.60
52591;BME280;38483;42.620;25.394;2023-04-25T06:06:24;96185.16;;;15.37;80.49
52591;BME280;38483;42.620;25.394;2023-04-25T06:08:53;96189.47;;;15.49;80.13
52591;BME280;38483;42.620;25.394;2023-04-25T06:11:21;96181.84;;;15.46;79.54
52591;BME280;38483;42.620;25.394;2023-04-25T06:13:47;96182.91;;;15.55;78.47
52591;BME280;38483;42.620;25.394;2023-04-25T06:16:15;96188.84;;;15.12;79.99
52591;BME280;38483;42.620;25.394;2023-04-25T06:18:42;96187.16;;;15.33;79.64
52591;BME280;38483;42.620;25.394;2023-04-25T06:21:09;96186.50;;;15.42;79.07
52591;BME280;38483;42.620;25.394;2023-04-25T06:23:37;96204.63;;;15.33;79.24
52591;BME280;38483;42.620;25.394;2023-04-25T06:26:06;96197.72;;;15.21;79.55
52591;BME280;38483;42.620;25.394;2023-04-25T06:28:36;96202.13;;;15.20;79.55
52591;BME280;38483;42.620;25.394;2023-04-25T06:31:03;96198.56;;;15.10;79.89
52591;BME280;38483;42.620;25.394;2023-04-25T06:33:31;96203.31;;;15.27;79.66
52591;BME280;38483;42.620;25.394;2023-04-25T06:35:58;96204.47;;;15.23;79.94
52591;BME280;38483;42.620;25.394;2023-04-25T06:38:26;96197.50;;;15.24;79.24
52591;BME280;38483;42.620;25.394;2023-04-25T06:40:55;96194.19;;;15.44;79.53
52591;BME280;38483;42.620;25.394;2023-04-25T06:43:24;96195.13;;;15.54;78.27
52591;BME280;38483;42.620;25.394;2023-04-25T06:46:09;96203.66;;;15.67;76.65
52591;BME280;38483;42.620;25.394;2023-04-25T06:48:42;96201.88;;;15.57;76.14
52591;BME280;38483;42.620;25.394;2023-04-25T06:51:10;96195.06;;;15.87;75.28
52591;BME280;38483;42.620;25.394;2023-04-25T06:53:38;96197.03;;;15.52;75.23
52591;BME280;38483;42.620;25.394;2023-04-25T06:56:07;96203.53;;;15.69;75.88
52591;BME280;38483;42.620;25.394;2023-04-25T06:59:06;96198.94;;;16.04;74.96
52591;BME280;38483;42.620;25.394;2023-04-25T07:02:00;96197.03;;;16.06;74.37
52591;BME280;38483;42.620;25.394;2023-04-25T07:04:30;96199.22;;;15.90;74.38
52591;BME280;38483;42.620;25.394;2023-04-25T07:07:13;96197.94;;;15.73;74.93
52591;BME280;38483;42.620;25.394;2023-04-25T07:10:02;96198.91;;;15.72;75.01
52591;BME280;38483;42.620;25.394;2023-04-25T07:12:30;96203.38;;;15.92;74.21
52591;BME280;38483;42.620;25.394;2023-04-25T07:14:57;96193.84;;;15.91;74.71
52591;BME280;38483;42.620;25.394;2023-04-25T07:17:25;96198.56;;;16.08;74.66
52591;BME280;38483;42.620;25.394;2023-04-25T07:19:52;96196.53;;;16.12;74.01
52591;BME280;38483;42.620;25.394;2023-04-25T07:22:19;96196.78;;;16.09;74.08
52591;BME280;38483;42.620;25.394;2023-04-25T07:24:46;96154.06;;;15.67;73.34
52591;BME280;38483;42.620;25.394;2023-04-25T07:27:18;96192.75;;;15.62;73.78
52591;BME280;38483;42.620;25.394;2023-04-25T07:30:00;96192.06;;;15.49;75.46
52591;BME280;38483;42.620;25.394;2023-04-25T07:32:31;96155.53;;;15.27;76.69
52591;BME280;38483;42.620;25.394;2023-04-25T07:34:59;96177.31;;;15.70;75.94
52591;BME280;38483;42.620;25.394;2023-04-25T07:37:26;96176.28;;;15.93;74.61
52591;BME280;38483;42.620;25.394;2023-04-25T07:40:02;96178.25;;;15.80;75.75
52591;BME280;38483;42.620;25.394;2023-04-25T07:42:32;96176.41;;;15.92;74.78
52591;BME280;38483;42.620;25.394;2023-04-25T07:45:04;96169.75;;;15.99;74.16
52591;BME280;38483;42.620;25.394;2023-04-25T07:47:33;96166.84;;;16.13;74.03
52591;BME280;38483;42.620;25.394;2023-04-25T07:50:00;96167.81;;;16.33;73.92
52591;BME280;38483;42.620;25.394;2023-04-25T07:52:28;96165.81;;;16.98;71.74
52591;BME280;38483;42.620;25.394;2023-04-25T07:55:05;96164.63;;;17.21;70.48
52591;BME280;38483;42.620;25.394;2023-04-25T07:57:47;96166.44;;;17.21;69.78
52591;BME280;38483;42.620;25.394;2023-04-25T08:00:14;96165.69;;;17.09;70.04
52591;BME280;38483;42.620;25.394;2023-04-25T08:02:47;96160.84;;;17.35;69.24
52591;BME280;38483;42.620;25.394;2023-04-25T08:05:16;96155.72;;;17.63;69.55
52591;BME280;38483;42.620;25.394;2023-04-25T08:07:52;96151.97;;;17.56;67.81
52591;BME280;38483;42.620;25.394;2023-04-25T08:10:19;96156.31;;;17.86;66.64
52591;BME280;38483;42.620;25.394;2023-04-25T08:12:48;96164.13;;;17.76;66.38
52591;BME280;38483;42.620;25.394;2023-04-25T08:15:15;96162.41;;;17.86;64.79
52591;BME280;38483;42.620;25.394;2023-04-25T08:17:44;96157.56;;;18.11;64.92
52591;BME280;38483;42.620;25.394;2023-04-25T08:20:12;96153.72;;;18.34;62.52
52591;BME280;38483;42.620;25.394;2023-04-25T08:22:41;96150.09;;;18.63;62.16
52591;BME280;38483;42.620;25.394;2023-04-25T08:25:20;96154.25;;;18.37;61.78
52591;BME280;38483;42.620;25.394;2023-04-25T08:27:47;96158.81;;;18.35;61.63
52591;BME280;38483;42.620;25.394;2023-04-25T08:30:15;96156.06;;;18.56;60.64
52591;BME280;38483;42.620;25.394;2023-04-25T08:32:45;96153.16;;;18.68;60.41
52591;BME280;38483;42.620;25.394;2023-04-25T08:35:25;96156.59;;;18.59;60.26
52591;BME280;38483;42.620;25.394;2023-04-25T08:37:52;96150.81;;;18.37;60.91
52591;BME280;38483;42.620;25.394;2023-04-25T08:40:19;96147.91;;;18.21;61.80
52591;BME280;38483;42.620;25.394;2023-04-25T08:42:59;96146.25;;;18.20;61.18
52591;BME280;38483;42.620;25.394;2023-04-25T08:45:31;96144.63;;;18.09;62.28
52591;BME280;38483;42.620;25.394;2023-04-25T08:47:59;96141.44;;;18.25;62.34
52591;BME280;38483;42.620;25.394;2023-04-25T08:50:27;96137.59;;;18.48;61.54
52591;BME280;38483;42.620;25.394;2023-04-25T08:52:56;96135.38;;;18.34;61.10
52591;BME280;38483;42.620;25.394;2023-04-25T08:55:28;96131.66;;;18.46;61.57
52591;BME280;38483;42.620;25.394;2023-04-25T08:57:58;96132.44;;;18.65;60.20
52591;BME280;38483;42.620;25.394;2023-04-25T09:00:26;96137.44;;;18.21;61.10
52591;BME280;38483;42.620;25.394;2023-04-25T09:02:55;96128.31;;;18.34;60.85
52591;BME280;38483;42.620;25.394;2023-04-25T09:05:28;96128.47;;;18.52;60.67
52591;BME280;38483;42.620;25.394;2023-04-25T09:07:55;96131.38;;;18.58;61.70
52591;BME280;38483;42.620;25.394;2023-04-25T09:10:23;96134.38;;;18.63;61.17
52591;BME280;38483;42.620;25.394;2023-04-25T09:15:50;96138.66;;;18.26;61.52
52591;BME280;38483;42.620;25.394;2023-04-25T09:18:31;96132.59;;;18.45;61.17
52591;BME280;38483;42.620;25.394;2023-04-25T09:23:46;96136.88;;;18.55;60.06
52591;BME280;38483;42.620;25.394;2023-04-25T09:26:20;96122.81;;;18.47;59.50
52591;BME280;38483;42.620;25.394;2023-04-25T09:28:49;96126.81;;;18.51;59.60
52591;BME280;38483;42.620;25.394;2023-04-25T09:31:31;96125.84;;;18.52;59.26
52591;BME280;38483;42.620;25.394;2023-04-25T09:34:03;96125.66;;;18.63;59.48
52591;BME280;38483;42.620;25.394;2023-04-25T09:36:40;96122.97;;;18.45;61.10
52591;BME280;38483;42.620;25.394;2023-04-25T09:39:17;96118.06;;;18.69;61.02
52591;BME280;38483;42.620;25.394;2023-04-25T09:41:54;96112.06;;;18.50;60.90
52591;BME280;38483;42.620;25.394;2023-04-25T09:44:24;96109.28;;;18.42;61.13
52591;BME280;38483;42.620;25.394;2023-04-25T09:46:53;96119.47;;;18.64;61.49
52591;BME280;38483;42.620;25.394;2023-04-25T09:49:24;96108.84;;;19.02;60.81
52591;BME280;38483;42.620;25.394;2023-04-25T09:52:13;96109.34;;;19.15;59.65
52591;BME280;38483;42.620;25.394;2023-04-25T09:54:58;96109.06;;;19.18;59.74
52591;BME280;38483;42.620;25.394;2023-04-25T09:57:31;96109.03;;;19.55;59.01
52591;BME280;38483;42.620;25.394;2023-04-25T09:59:58;96113.28;;;19.38;58.47
52591;BME280;38483;42.620;25.394;2023-04-25T10:02:39;96065.28;;;18.82;59.13
52591;BME280;38483;42.620;25.394;2023-04-25T10:05:14;96110.13;;;19.35;59.32
52591;BME280;38483;42.620;25.394;2023-04-25T10:07:42;96099.63;;;19.35;59.35
52591;BME280;38483;42.620;25.394;2023-04-25T10:10:14;96090.63;;;18.64;59.64
52591;BME280;38483;42.620;25.394;2023-04-25T10:12:42;96088.28;;;18.61;60.55
52591;BME280;38483;42.620;25.394;2023-04-25T10:15:10;96083.09;;;19.15;59.90
52591;BME280;38483;42.620;25.394;2023-04-25T10:17:39;96075.25;;;19.42;58.80
52591;BME280;38483;42.620;25.394;2023-04-25T10:20:09;96066.72;;;19.76;57.31
52591;BME280;38483;42.620;25.394;2023-04-25T10:22:38;96063.34;;;20.01;55.71
52591;BME280;38483;42.620;25.394;2023-04-25T10:25:06;96050.63;;;20.14;56.02
52591;BME280;38483;42.620;25.394;2023-04-25T10:27:34;96050.25;;;19.56;56.53
52591;BME280;38483;42.620;25.394;2023-04-25T10:30:05;96034.22;;;19.14;56.93
52591;BME280;38483;42.620;25.394;2023-04-25T10:32:33;96038.66;;;19.04;57.41
52591;BME280;38483;42.620;25.394;2023-04-25T10:35:16;96038.06;;;19.10;58.77
52591;BME280;38483;42.620;25.394;2023-04-25T10:41:05;96027.84;;;19.62;57.32
52591;BME280;38483;42.620;25.394;2023-04-25T10:48:51;96015.88;;;20.46;53.04
52591;BME280;38483;42.620;25.394;2023-04-25T10:51:20;96015.03;;;20.45;53.16
52591;BME280;38483;42.620;25.394;2023-04-25T10:53:56;96018.56;;;20.54;52.45
52591;BME280;38483;42.620;25.394;2023-04-25T10:56:28;96022.53;;;20.58;51.83
52591;BME280;38483;42.620;25.394;2023-04-25T10:59:02;95983.22;;;20.56;51.16
52591;BME280;38483;42.620;25.394;2023-04-25T11:01:35;96013.59;;;20.84;51.27
52591;BME280;38483;42.620;25.394;2023-04-25T11:04:02;96008.69;;;21.23;50.50
52591;BME280;38483;42.620;25.394;2023-04-25T11:09:10;96003.94;;;20.59;51.52
52591;BME280;38483;42.620;25.394;2023-04-25T11:11:39;95998.09;;;20.40;55.16
52591;BME280;38483;42.620;25.394;2023-04-25T11:14:06;96004.66;;;20.69;53.84
52591;BME280;38483;42.620;25.394;2023-04-25T11:16:33;96007.69;;;20.82;52.58
52591;BME280;38483;42.620;25.394;2023-04-25T11:19:00;96006.31;;;19.76;55.67
52591;BME280;38483;42.620;25.394;2023-04-25T11:21:27;95994.91;;;19.93;55.08
52591;BME280;38483;42.620;25.394;2023-04-25T11:23:56;96001.84;;;19.94;55.58
52591;BME280;38483;42.620;25.394;2023-04-25T11:26:24;95998.59;;;20.00;55.17
52591;BME280;38483;42.620;25.394;2023-04-25T11:28:51;95998.38;;;20.11;54.93
52591;BME280;38483;42.620;25.394;2023-04-25T11:31:21;95984.34;;;20.28;54.89
52591;BME280;38483;42.620;25.394;2023-04-25T11:33:50;95987.84;;;20.11;55.15
52591;BME280;38483;42.620;25.394;2023-04-25T11:36:24;95985.78;;;19.97;55.25
52591;BME280;38483;42.620;25.394;2023-04-25T11:38:52;95976.72;;;20.17;55.47
52591;BME280;38483;42.620;25.394;2023-04-25T11:41:19;95970.19;;;20.03;55.38
52591;BME280;38483;42.620;25.394;2023-04-25T11:43:46;95978.25;;;20.02;54.89
52591;BME280;38483;42.620;25.394;2023-04-25T11:46:14;95970.13;;;20.13;54.79
52591;BME280;38483;42.620;25.394;2023-04-25T11:48:41;95969.38;;;20.46;54.23
52591;BME280;38483;42.620;25.394;2023-04-25T11:51:08;95956.53;;;20.85;52.30
52591;BME280;38483;42.620;25.394;2023-04-25T11:53:36;95959.31;;;21.25;50.53
52591;BME280;38483;42.620;25.394;2023-04-25T11:56:10;95947.91;;;21.17;51.58
52591;BME280;38483;42.620;25.394;2023-04-25T11:58:56;95944.72;;;20.97;54.65
52591;BME280;38483;42.620;25.394;2023-04-25T12:01:30;95950.75;;;21.23;53.56
52591;BME280;38483;42.620;25.394;2023-04-25T12:04:21;95948.50;;;20.53;54.67
52591;BME280;38483;42.620;25.394;2023-04-25T12:06:49;95938.91;;;20.36;56.00
52591;BME280;38483;42.620;25.394;2023-04-25T12:09:19;95934.78;;;20.33;56.91
52591;BME280;38483;42.620;25.394;2023-04-25T12:11:48;95937.28;;;20.17;58.11
52591;BME280;38483;42.620;25.394;2023-04-25T12:14:22;95931.03;;;20.18;58.28
52591;BME280;38483;42.620;25.394;2023-04-25T12:16:50;95938.38;;;20.06;57.86
52591;BME280;38483;42.620;25.394;2023-04-25T12:19:19;95932.44;;;20.30;57.47
52591;BME280;38483;42.620;25.394;2023-04-25T12:21:48;95933.81;;;19.91;58.43
52591;BME280;38483;42.620;25.394;2023-04-25T12:24:25;95923.00;;;19.94;59.10
52591;BME280;38483;42.620;25.394;2023-04-25T12:26:55;95924.13;;;19.91;58.72
52591;BME280;38483;42.620;25.394;2023-04-25T12:29:28;95925.25;;;19.28;61.09
52591;BME280;38483;42.620;25.394;2023-04-25T12:32:14;95929.50;;;18.39;62.82
52591;BME280;38483;42.620;25.394;2023-04-25T12:34:42;95913.78;;;18.03;64.03
52591;BME280;38483;42.620;25.394;2023-04-25T12:37:09;95906.84;;;18.11;63.83
52591;BME280;38483;42.620;25.394;2023-04-25T12:39:36;95905.38;;;18.36;63.88
52591;BME280;38483;42.620;25.394;2023-04-25T12:42:04;95911.94;;;18.49;65.44
52591;BME280;38483;42.620;25.394;2023-04-25T12:44:36;95912.25;;;18.46;65.59
52591;BME280;38483;42.620;25.394;2023-04-25T12:47:03;95907.00;;;18.37;66.97
52591;BME280;38483;42.620;25.394;2023-04-25T12:49:30;95910.72;;;18.71;66.40
52591;BME280;38483;42.620;25.394;2023-04-25T12:51:58;95902.63;;;18.82;66.71
52591;BME280;38483;42.620;25.394;2023-04-25T12:54:25;95902.59;;;19.09;66.84
52591;BME280;38483;42.620;25.394;2023-04-25T12:56:52;95909.19;;;19.13;65.63
52591;BME280;38483;42.620;25.394;2023-04-25T12:59:19;95913.69;;;19.21;65.45
52591;BME280;38483;42.620;25.394;2023-04-25T13:01:47;95902.28;;;19.30;64.98
52591;BME280;38483;42.620;25.394;2023-04-25T13:04:15;95906.34;;;19.42;64.05
52591;BME280;38483;42.620;25.394;2023-04-25T13:06:43;95913.03;;;18.74;63.12
52591;BME280;38483;42.620;25.394;2023-04-25T13:09:10;95922.28;;;18.78;63.94
52591;BME280;38483;42.620;25.394;2023-04-25T13:11:39;95923.63;;;18.82;62.41
52591;BME280;38483;42.620;25.394;2023-04-25T13:14:07;95932.00;;;18.68;63.65
52591;BME280;38483;42.620;25.394;2023-04-25T13:16:34;95922.47;;;18.67;63.96
52591;BME280;38483;42.620;25.394;2023-04-25T13:19:01;95930.44;;;18.48;63.74
52591;BME280;38483;42.620;25.394;2023-04-25T13:21:29;95922.97;;;18.53;63.88
52591;BME280;38483;42.620;25.394;2023-04-25T13:23:57;95920.66;;;18.50;64.40
52591;BME280;38483;42.620;25.394;2023-04-25T13:26:24;95918.84;;;18.50;63.99
52591;BME280;38483;42.620;25.394;2023-04-25T13:28:51;95919.06;;;18.30;64.77